sensor_id;sensor_type;location;lat;lon;timestamp;P1;durP1;ratioP1;P2;durP2;ratioP2
23474;SDS011;11910;52.086;21.066;2023-08-30T00:00:10;72.32;;;48.40;;
23474;SDS011;11910;52.086;21.066;2023-08-30T00:02:38;58.58;;;43.90;;
23474;SDS011;11910;52.086;21.066;2023-08-30T00:05:04;66.18;;;46.78;;
23474;SDS011;11910;52.086;21.066;2023-08-30T00:07:30;51.13;;;40.80;;
23474;SDS011;11910;52.086;21.066;2023-08-30T00:09:57;61.42;;;45.22;;
23474;SDS011;11910;52.086;21.066;2023-08-30T00:12:24;56.28;;;43.25;;
23474;SDS011;11910;52.086;21.066;2023-08-30T00:14:50;63.67;;;45.35;;
23474;SDS011;11910;52.086;21.066;2023-08-30T00:17:16;62.40;;;46.35;;
23474;SDS011;11910;52.086;21.066;2023-08-30T00:19:42;52.88;;;42.15;;
23474;SDS011;11910;52.086;21.066;2023-08-30T00:22:08;79.18;;;47.65;;
23474;SDS011;11910;52.086;21.066;2023-08-30T00:24:33;51.72;;;42.30;;
23474;SDS011;11910;52.086;21.066;2023-08-30T00:27:06;49.42;;;40.67;;
23474;SDS011;11910;52.086;21.066;2023-08-30T00:29:32;47.85;;;40.13;;
23474;SDS011;11910;52.086;21.066;2023-08-30T00:31:57;61.03;;;43.58;;
23474;SDS011;11910;52.086;21.066;2023-08-30T00:34:23;54.08;;;42.53;;
23474;SDS011;11910;52.086;21.066;2023-08-30T00:36:48;49.42;;;40.63;;
23474;SDS011;11910;52.086;21.066;2023-08-30T00:39:14;76.65;;;49.08;;
23474;SDS011;11910;52.086;21.066;2023-08-30T00:41:43;63.47;;;46.15;;
23474;SDS011;11910;52.086;21.066;2023-08-30T00:44:09;76.45;;;48.85;;
23474;SDS011;11910;52.086;21.066;2023-08-30T00:46:35;62.60;;;44.75;;
23474;SDS011;11910;52.086;21.066;2023-08-30T00:49:05;63.60;;;45.50;;
23474;SDS011;11910;52.086;21.066;2023-08-30T00:51:32;66.10;;;46.97;;
23474;SDS011;11910;52.086;21.066;2023-08-30T00:53:59;52.83;;;42.33;;
23474;SDS011;11910;52.086;21.066;2023-08-30T00:56:25;68.57;;;48.15;;
23474;SDS011;11910;52.086;21.066;2023-08-30T00:58:52;58.45;;;43.63;;
23474;SDS011;11910;52.086;21.066;2023-08-30T01:01:18;65.13;;;47.38;;
23474;SDS011;11910;52.086;21.066;2023-08-30T01:03:45;72.35;;;46.90;;
23474;SDS011;11910;52.086;21.066;2023-08-30T01:06:10;64.28;;;45.25;;
23474;SDS011;11910;52.086;21.066;2023-08-30T01:08:37;84.13;;;51.22;;
23474;SDS011;11910;52.086;21.066;2023-08-30T01:11:11;69.22;;;47.58;;
23474;SDS011;11910;52.086;21.066;2023-08-30T01:14:08;63.35;;;45.85;;
23474;SDS011;11910;52.086;21.066;2023-08-30T01:16:38;73.70;;;48.58;;
23474;SDS011;11910;52.086;21.066;2023-08-30T01:19:16;61.80;;;45.08;;
23474;SDS011;11910;52.086;21.066;2023-08-30T01:25:00;60.95;;;44.53;;
23474;SDS011;11910;52.086;21.066;2023-08-30T01:27:33;58.40;;;43.08;;
23474;SDS011;11910;52.086;21.066;2023-08-30T01:30:01;50.25;;;41.92;;
23474;SDS011;11910;52.086;21.066;2023-08-30T01:32:28;51.33;;;40.17;;
23474;SDS011;11910;52.086;21.066;2023-08-30T01:34:55;63.65;;;45.67;;
23474;SDS011;11910;52.086;21.066;2023-08-30T01:37:21;57.78;;;41.97;;
23474;SDS011;11910;52.086;21.066;2023-08-30T01:39:50;51.92;;;41.38;;
23474;SDS011;11910;52.086;21.066;2023-08-30T01:42:17;50.47;;;39.42;;
23474;SDS011;11910;52.086;21.066;2023-08-30T01:44:47;48.67;;;40.17;;
23474;SDS011;11910;52.086;21.066;2023-08-30T01:47:14;51.08;;;38.25;;
23474;SDS011;11910;52.086;21.066;2023-08-30T01:49:41;49.15;;;37.45;;
23474;SDS011;11910;52.086;21.066;2023-08-30T01:52:08;49.92;;;39.55;;
23474;SDS011;11910;52.086;21.066;2023-08-30T01:54:35;49.55;;;39.38;;
23474;SDS011;11910;52.086;21.066;2023-08-30T01:57:02;52.13;;;41.53;;
23474;SDS011;11910;52.086;21.066;2023-08-30T01:59:29;46.92;;;39.05;;
23474;SDS011;11910;52.086;21.066;2023-08-30T02:01:54;48.35;;;38.25;;
23474;SDS011;11910;52.086;21.066;2023-08-30T02:04:21;46.65;;;37.60;;
23474;SDS011;11910;52.086;21.066;2023-08-30T02:06:54;45.58;;;37.10;;
23474;SDS011;11910;52.086;21.066;2023-08-30T02:10:08;43.67;;;37.35;;
23474;SDS011;11910;52.086;21.066;2023-08-30T02:12:19;48.22;;;37.90;;
23474;SDS011;11910;52.086;21.066;2023-08-30T02:14:48;46.90;;;36.47;;
23474;SDS011;11910;52.086;21.066;2023-08-30T02:17:14;50.10;;;38.35;;
23474;SDS011;11910;52.086;21.066;2023-08-30T02:19:42;44.55;;;37.80;;
23474;SDS011;11910;52.086;21.066;2023-08-30T02:22:08;53.08;;;39.55;;
23474;SDS011;11910;52.086;21.066;2023-08-30T02:24:34;47.92;;;38.45;;
23474;SDS011;11910;52.086;21.066;2023-08-30T02:27:00;53.75;;;39.70;;
23474;SDS011;11910;52.086;21.066;2023-08-30T02:29:26;55.25;;;41.17;;
23474;SDS011;11910;52.086;21.066;2023-08-30T02:31:51;57.47;;;41.13;;
23474;SDS011;11910;52.086;21.066;2023-08-30T02:34:17;61.33;;;42.00;;
23474;SDS011;11910;52.086;21.066;2023-08-30T02:36:43;49.05;;;38.10;;
23474;SDS011;11910;52.086;21.066;2023-08-30T02:39:08;43.95;;;36.90;;
23474;SDS011;11910;52.086;21.066;2023-08-30T02:41:34;43.30;;;36.00;;
23474;SDS011;11910;52.086;21.066;2023-08-30T02:44:00;42.13;;;35.65;;
23474;SDS011;11910;52.086;21.066;2023-08-30T02:46:25;43.22;;;35.92;;
23474;SDS011;11910;52.086;21.066;2023-08-30T02:48:51;41.20;;;34.28;;
23474;SDS011;11910;52.086;21.066;2023-08-30T02:51:17;47.15;;;34.92;;
23474;SDS011;11910;52.086;21.066;2023-08-30T02:53:42;56.63;;;37.88;;
23474;SDS011;11910;52.086;21.066;2023-08-30T02:56:10;57.45;;;38.22;;
23474;SDS011;11910;52.086;21.066;2023-08-30T02:58:36;41.42;;;32.55;;
23474;SDS011;11910;52.086;21.066;2023-08-30T03:01:02;39.08;;;31.55;;
23474;SDS011;11910;52.086;21.066;2023-08-30T03:03:27;41.97;;;30.50;;
23474;SDS011;11910;52.086;21.066;2023-08-30T03:05:53;38.97;;;31.88;;
23474;SDS011;11910;52.086;21.066;2023-08-30T03:08:19;40.50;;;30.55;;
23474;SDS011;11910;52.086;21.066;2023-08-30T03:10:45;38.08;;;30.63;;
23474;SDS011;11910;52.086;21.066;2023-08-30T03:13:10;38.85;;;29.88;;
23474;SDS011;11910;52.086;21.066;2023-08-30T03:15:36;45.70;;;27.33;;
23474;SDS011;11910;52.086;21.066;2023-08-30T03:18:01;35.90;;;29.08;;
23474;SDS011;11910;52.086;21.066;2023-08-30T03:20:27;46.33;;;35.00;;
23474;SDS011;11910;52.086;21.066;2023-08-30T03:22:55;46.83;;;33.17;;
23474;SDS011;11910;52.086;21.066;2023-08-30T03:25:23;48.72;;;35.65;;
23474;SDS011;11910;52.086;21.066;2023-08-30T03:27:48;43.47;;;34.33;;
23474;SDS011;11910;52.086;21.066;2023-08-30T03:30:14;42.63;;;32.42;;
23474;SDS011;11910;52.086;21.066;2023-08-30T03:32:40;39.60;;;27.92;;
23474;SDS011;11910;52.086;21.066;2023-08-30T03:35:06;41.55;;;27.42;;
23474;SDS011;11910;52.086;21.066;2023-08-30T03:37:32;38.10;;;30.15;;
23474;SDS011;11910;52.086;21.066;2023-08-30T03:39:57;43.72;;;34.08;;
23474;SDS011;11910;52.086;21.066;2023-08-30T03:42:23;35.85;;;25.45;;
23474;SDS011;11910;52.086;21.066;2023-08-30T03:44:49;36.58;;;26.65;;
23474;SDS011;11910;52.086;21.066;2023-08-30T03:47:14;52.00;;;35.45;;
23474;SDS011;11910;52.086;21.066;2023-08-30T03:49:40;39.58;;;28.30;;
23474;SDS011;11910;52.086;21.066;2023-08-30T03:52:05;42.05;;;29.30;;
23474;SDS011;11910;52.086;21.066;2023-08-30T03:54:31;35.10;;;27.55;;
23474;SDS011;11910;52.086;21.066;2023-08-30T03:56:57;41.15;;;30.67;;
23474;SDS011;11910;52.086;21.066;2023-08-30T03:59:23;32.45;;;27.05;;
23474;SDS011;11910;52.086;21.066;2023-08-30T04:01:50;35.20;;;28.67;;
23474;SDS011;11910;52.086;21.066;2023-08-30T04:04:16;35.50;;;24.48;;
23474;SDS011;11910;52.086;21.066;2023-08-30T04:06:42;45.72;;;29.58;;
23474;SDS011;11910;52.086;21.066;2023-08-30T04:09:07;38.55;;;25.98;;
23474;SDS011;11910;52.086;21.066;2023-08-30T04:11:33;41.97;;;29.25;;
23474;SDS011;11910;52.086;21.066;2023-08-30T04:13:59;39.10;;;30.98;;
23474;SDS011;11910;52.086;21.066;2023-08-30T04:16:24;47.42;;;33.17;;
23474;SDS011;11910;52.086;21.066;2023-08-30T04:18:50;38.67;;;29.23;;
23474;SDS011;11910;52.086;21.066;2023-08-30T04:31:03;47.92;;;36.28;;
23474;SDS011;11910;52.086;21.066;2023-08-30T04:37:48;42.20;;;31.80;;
23474;SDS011;11910;52.086;21.066;2023-08-30T04:40:13;54.63;;;38.40;;
23474;SDS011;11910;52.086;21.066;2023-08-30T04:42:39;47.72;;;35.25;;
23474;SDS011;11910;52.086;21.066;2023-08-30T04:45:05;46.10;;;35.95;;
23474;SDS011;11910;52.086;21.066;2023-08-30T04:47:32;49.42;;;36.92;;
23474;SDS011;11910;52.086;21.066;2023-08-30T04:49:58;51.28;;;36.70;;
23474;SDS011;11910;52.086;21.066;2023-08-30T04:52:24;61.20;;;41.53;;
23474;SDS011;11910;52.086;21.066;2023-08-30T04:54:50;54.05;;;38.72;;
23474;SDS011;11910;52.086;21.066;2023-08-30T04:57:16;51.78;;;38.72;;
23474;SDS011;11910;52.086;21.066;2023-08-30T04:59:42;49.00;;;36.65;;
23474;SDS011;11910;52.086;21.066;2023-08-30T05:02:09;56.60;;;38.60;;
23474;SDS011;11910;52.086;21.066;2023-08-30T05:04:35;51.13;;;36.08;;
23474;SDS011;11910;52.086;21.066;2023-08-30T05:07:01;54.47;;;38.75;;
23474;SDS011;11910;52.086;21.066;2023-08-30T05:09:27;46.60;;;36.40;;
23474;SDS011;11910;52.086;21.066;2023-08-30T05:11:55;55.55;;;38.40;;
23474;SDS011;11910;52.086;21.066;2023-08-30T05:14:21;58.08;;;39.00;;
23474;SDS011;11910;52.086;21.066;2023-08-30T05:16:48;46.72;;;34.42;;
23474;SDS011;11910;52.086;21.066;2023-08-30T05:19:14;51.42;;;35.63;;
23474;SDS011;11910;52.086;21.066;2023-08-30T05:21:41;44.05;;;33.53;;
23474;SDS011;11910;52.086;21.066;2023-08-30T05:24:07;43.50;;;33.20;;
23474;SDS011;11910;52.086;21.066;2023-08-30T05:26:33;42.00;;;33.67;;
23474;SDS011;11910;52.086;21.066;2023-08-30T05:28:59;42.30;;;32.13;;
23474;SDS011;11910;52.086;21.066;2023-08-30T05:31:24;45.80;;;32.50;;
23474;SDS011;11910;52.086;21.066;2023-08-30T05:33:50;44.20;;;32.83;;
23474;SDS011;11910;52.086;21.066;2023-08-30T05:36:22;39.22;;;31.55;;
23474;SDS011;11910;52.086;21.066;2023-08-30T05:38:47;44.05;;;32.00;;
23474;SDS011;11910;52.086;21.066;2023-08-30T05:41:13;45.78;;;33.40;;
23474;SDS011;11910;52.086;21.066;2023-08-30T05:43:39;47.40;;;34.50;;
23474;SDS011;11910;52.086;21.066;2023-08-30T05:46:05;44.15;;;32.92;;
23474;SDS011;11910;52.086;21.066;2023-08-30T05:48:33;39.80;;;30.50;;
23474;SDS011;11910;52.086;21.066;2023-08-30T05:51:01;40.60;;;30.77;;
23474;SDS011;11910;52.086;21.066;2023-08-30T05:53:27;38.22;;;30.05;;
23474;SDS011;11910;52.086;21.066;2023-08-30T05:55:53;40.08;;;31.02;;
23474;SDS011;11910;52.086;21.066;2023-08-30T05:58:19;30.75;;;27.00;;
23474;SDS011;11910;52.086;21.066;2023-08-30T06:00:48;32.55;;;26.15;;
23474;SDS011;11910;52.086;21.066;2023-08-30T06:03:14;35.63;;;27.40;;
23474;SDS011;11910;52.086;21.066;2023-08-30T06:05:40;32.70;;;25.58;;
23474;SDS011;11910;52.086;21.066;2023-08-30T06:08:05;29.63;;;24.92;;
23474;SDS011;11910;52.086;21.066;2023-08-30T06:10:33;26.50;;;23.63;;
23474;SDS011;11910;52.086;21.066;2023-08-30T06:12:58;29.05;;;23.92;;
23474;SDS011;11910;52.086;21.066;2023-08-30T06:15:24;34.58;;;26.13;;
23474;SDS011;11910;52.086;21.066;2023-08-30T06:17:51;27.73;;;23.50;;
23474;SDS011;11910;52.086;21.066;2023-08-30T06:20:19;33.22;;;26.33;;
23474;SDS011;11910;52.086;21.066;2023-08-30T06:22:45;35.70;;;27.20;;
23474;SDS011;11910;52.086;21.066;2023-08-30T06:25:10;31.27;;;24.67;;
23474;SDS011;11910;52.086;21.066;2023-08-30T06:27:41;30.42;;;24.70;;
23474;SDS011;11910;52.086;21.066;2023-08-30T06:30:09;28.40;;;23.27;;
23474;SDS011;11910;52.086;21.066;2023-08-30T06:32:35;31.48;;;24.48;;
23474;SDS011;11910;52.086;21.066;2023-08-30T06:35:01;30.10;;;23.75;;
23474;SDS011;11910;52.086;21.066;2023-08-30T06:37:27;31.02;;;24.30;;
23474;SDS011;11910;52.086;21.066;2023-08-30T06:39:53;30.65;;;24.38;;
23474;SDS011;11910;52.086;21.066;2023-08-30T06:42:30;30.33;;;24.67;;
23474;SDS011;11910;52.086;21.066;2023-08-30T06:44:56;36.05;;;26.52;;
23474;SDS011;11910;52.086;21.066;2023-08-30T06:47:22;26.15;;;22.15;;
23474;SDS011;11910;52.086;21.066;2023-08-30T06:49:47;31.20;;;24.70;;
23474;SDS011;11910;52.086;21.066;2023-08-30T06:52:15;30.08;;;24.20;;
23474;SDS011;11910;52.086;21.066;2023-08-30T06:54:41;34.03;;;25.52;;
23474;SDS011;11910;52.086;21.066;2023-08-30T06:57:07;33.83;;;25.63;;
23474;SDS011;11910;52.086;21.066;2023-08-30T06:59:33;32.33;;;25.92;;
23474;SDS011;11910;52.086;21.066;2023-08-30T07:02:01;30.92;;;24.92;;
23474;SDS011;11910;52.086;21.066;2023-08-30T07:04:27;31.48;;;25.45;;
23474;SDS011;11910;52.086;21.066;2023-08-30T07:06:53;29.55;;;24.38;;
23474;SDS011;11910;52.086;21.066;2023-08-30T07:09:19;32.25;;;25.60;;
23474;SDS011;11910;52.086;21.066;2023-08-30T07:12:00;35.20;;;26.08;;
23474;SDS011;11910;52.086;21.066;2023-08-30T07:14:26;33.58;;;25.42;;
23474;SDS011;11910;52.086;21.066;2023-08-30T07:16:52;32.53;;;25.08;;
23474;SDS011;11910;52.086;21.066;2023-08-30T07:19:21;33.03;;;25.85;;
23474;SDS011;11910;52.086;21.066;2023-08-30T07:24:56;33.72;;;25.63;;
23474;SDS011;11910;52.086;21.066;2023-08-30T07:31:05;34.67;;;26.17;;
23474;SDS011;11910;52.086;21.066;2023-08-30T07:33:44;43.30;;;29.25;;
23474;SDS011;11910;52.086;21.066;2023-08-30T07:36:10;44.05;;;27.77;;
23474;SDS011;11910;52.086;21.066;2023-08-30T07:41:37;36.38;;;26.10;;
23474;SDS011;11910;52.086;21.066;2023-08-30T07:44:23;34.33;;;26.33;;
23474;SDS011;11910;52.086;21.066;2023-08-30T07:47:24;40.25;;;27.25;;
23474;SDS011;11910;52.086;21.066;2023-08-30T07:50:00;38.83;;;27.60;;
23474;SDS011;11910;52.086;21.066;2023-08-30T07:52:26;39.00;;;27.75;;
23474;SDS011;11910;52.086;21.066;2023-08-30T07:55:10;43.65;;;29.85;;
23474;SDS011;11910;52.086;21.066;2023-08-30T07:57:43;34.92;;;26.30;;
23474;SDS011;11910;52.086;21.066;2023-08-30T08:00:17;41.92;;;29.33;;
23474;SDS011;11910;52.086;21.066;2023-08-30T08:03:02;37.90;;;27.38;;
23474;SDS011;11910;52.086;21.066;2023-08-30T08:09:50;41.90;;;27.35;;
23474;SDS011;11910;52.086;21.066;2023-08-30T08:18:29;43.22;;;23.30;;
23474;SDS011;11910;52.086;21.066;2023-08-30T08:20:58;36.78;;;23.92;;
23474;SDS011;11910;52.086;21.066;2023-08-30T08:23:23;31.08;;;20.60;;
23474;SDS011;11910;52.086;21.066;2023-08-30T08:25:49;28.08;;;21.60;;
23474;SDS011;11910;52.086;21.066;2023-08-30T08:28:21;32.17;;;21.70;;
23474;SDS011;11910;52.086;21.066;2023-08-30T08:30:47;26.08;;;19.70;;
23474;SDS011;11910;52.086;21.066;2023-08-30T08:33:15;25.15;;;19.45;;
23474;SDS011;11910;52.086;21.066;2023-08-30T08:35:45;41.10;;;21.50;;
23474;SDS011;11910;52.086;21.066;2023-08-30T08:38:10;29.77;;;18.52;;
23474;SDS011;11910;52.086;21.066;2023-08-30T08:40:37;26.10;;;17.70;;
23474;SDS011;11910;52.086;21.066;2023-08-30T08:43:04;36.22;;;20.20;;
23474;SDS011;11910;52.086;21.066;2023-08-30T08:45:31;22.08;;;16.65;;
23474;SDS011;11910;52.086;21.066;2023-08-30T08:48:03;24.30;;;16.88;;
23474;SDS011;11910;52.086;21.066;2023-08-30T08:50:30;23.73;;;16.23;;
23474;SDS011;11910;52.086;21.066;2023-08-30T08:52:59;15.73;;;13.25;;
23474;SDS011;11910;52.086;21.066;2023-08-30T08:55:26;39.67;;;17.30;;
23474;SDS011;11910;52.086;21.066;2023-08-30T08:57:58;16.42;;;12.63;;
23474;SDS011;11910;52.086;21.066;2023-08-30T09:00:24;12.40;;;11.20;;
23474;SDS011;11910;52.086;21.066;2023-08-30T09:02:50;11.88;;;10.68;;
23474;SDS011;11910;52.086;21.066;2023-08-30T09:05:18;14.80;;;12.25;;
23474;SDS011;11910;52.086;21.066;2023-08-30T09:07:44;15.82;;;13.80;;
23474;SDS011;11910;52.086;21.066;2023-08-30T09:10:10;17.88;;;13.48;;
23474;SDS011;11910;52.086;21.066;2023-08-30T09:12:36;15.75;;;14.05;;
23474;SDS011;11910;52.086;21.066;2023-08-30T09:15:02;14.52;;;12.98;;
23474;SDS011;11910;52.086;21.066;2023-08-30T09:17:36;14.93;;;12.88;;
23474;SDS011;11910;52.086;21.066;2023-08-30T09:20:09;20.35;;;14.63;;
23474;SDS011;11910;52.086;21.066;2023-08-30T09:22:39;18.13;;;13.70;;
23474;SDS011;11910;52.086;21.066;2023-08-30T09:25:09;16.40;;;12.40;;
23474;SDS011;11910;52.086;21.066;2023-08-30T09:27:47;15.95;;;12.48;;
23474;SDS011;11910;52.086;21.066;2023-08-30T09:30:12;16.83;;;11.75;;
23474;SDS011;11910;52.086;21.066;2023-08-30T09:32:39;18.20;;;11.57;;
23474;SDS011;11910;52.086;21.066;2023-08-30T09:35:06;19.02;;;11.00;;
23474;SDS011;11910;52.086;21.066;2023-08-30T09:37:38;15.35;;;11.48;;
23474;SDS011;11910;52.086;21.066;2023-08-30T09:42:30;20.02;;;13.15;;
23474;SDS011;11910;52.086;21.066;2023-08-30T09:44:56;12.85;;;9.52;;
23474;SDS011;11910;52.086;21.066;2023-08-30T09:47:24;17.92;;;11.05;;
23474;SDS011;11910;52.086;21.066;2023-08-30T09:49:51;11.68;;;9.20;;
23474;SDS011;11910;52.086;21.066;2023-08-30T09:52:19;11.70;;;9.60;;
23474;SDS011;11910;52.086;21.066;2023-08-30T09:54:48;12.10;;;9.10;;
23474;SDS011;11910;52.086;21.066;2023-08-30T09:57:14;10.43;;;8.93;;
23474;SDS011;11910;52.086;21.066;2023-08-30T09:59:41;11.05;;;8.40;;
23474;SDS011;11910;52.086;21.066;2023-08-30T10:02:08;12.57;;;10.15;;
23474;SDS011;11910;52.086;21.066;2023-08-30T10:04:35;10.13;;;8.88;;
23474;SDS011;11910;52.086;21.066;2023-08-30T10:07:04;12.82;;;10.07;;
23474;SDS011;11910;52.086;21.066;2023-08-30T10:09:30;12.13;;;10.40;;
23474;SDS011;11910;52.086;21.066;2023-08-30T10:12:04;12.43;;;10.90;;
23474;SDS011;11910;52.086;21.066;2023-08-30T10:14:31;12.48;;;9.77;;
23474;SDS011;11910;52.086;21.066;2023-08-30T10:17:01;17.25;;;12.75;;
23474;SDS011;11910;52.086;21.066;2023-08-30T10:19:32;12.90;;;10.85;;
23474;SDS011;11910;52.086;21.066;2023-08-30T10:24:41;14.48;;;11.48;;
23474;SDS011;11910;52.086;21.066;2023-08-30T10:27:11;12.20;;;10.52;;
23474;SDS011;11910;52.086;21.066;2023-08-30T10:29:39;15.57;;;11.77;;
23474;SDS011;11910;52.086;21.066;2023-08-30T10:32:24;13.10;;;10.55;;
23474;SDS011;11910;52.086;21.066;2023-08-30T10:34:52;12.00;;;10.13;;
23474;SDS011;11910;52.086;21.066;2023-08-30T10:37:26;15.73;;;11.57;;
23474;SDS011;11910;52.086;21.066;2023-08-30T10:39:59;13.45;;;11.27;;
23474;SDS011;11910;52.086;21.066;2023-08-30T10:42:33;14.93;;;11.48;;
23474;SDS011;11910;52.086;21.066;2023-08-30T10:45:04;15.80;;;12.75;;
23474;SDS011;11910;52.086;21.066;2023-08-30T10:47:31;14.82;;;12.00;;
23474;SDS011;11910;52.086;21.066;2023-08-30T10:50:17;15.23;;;12.10;;
23474;SDS011;11910;52.086;21.066;2023-08-30T10:52:56;14.45;;;11.93;;
23474;SDS011;11910;52.086;21.066;2023-08-30T10:55:22;17.38;;;12.32;;
23474;SDS011;11910;52.086;21.066;2023-08-30T10:57:58;11.63;;;10.00;;
23474;SDS011;11910;52.086;21.066;2023-08-30T11:00:29;11.20;;;9.77;;
23474;SDS011;11910;52.086;21.066;2023-08-30T11:02:56;9.95;;;8.90;;
23474;SDS011;11910;52.086;21.066;2023-08-30T11:05:25;10.57;;;8.95;;
23474;SDS011;11910;52.086;21.066;2023-08-30T11:07:52;12.20;;;9.57;;
23474;SDS011;11910;52.086;21.066;2023-08-30T11:10:19;11.73;;;9.70;;
23474;SDS011;11910;52.086;21.066;2023-08-30T11:12:46;9.48;;;8.15;;
23474;SDS011;11910;52.086;21.066;2023-08-30T11:15:17;10.30;;;8.38;;
23474;SDS011;11910;52.086;21.066;2023-08-30T11:17:51;10.15;;;7.80;;
23474;SDS011;11910;52.086;21.066;2023-08-30T11:20:16;9.80;;;7.75;;
23474;SDS011;11910;52.086;21.066;2023-08-30T11:22:45;7.95;;;7.15;;
23474;SDS011;11910;52.086;21.066;2023-08-30T11:25:12;10.38;;;8.10;;
23474;SDS011;11910;52.086;21.066;2023-08-30T11:27:40;9.32;;;8.02;;
23474;SDS011;11910;52.086;21.066;2023-08-30T11:30:07;9.63;;;7.25;;
23474;SDS011;11910;52.086;21.066;2023-08-30T11:32:34;8.40;;;7.07;;
23474;SDS011;11910;52.086;21.066;2023-08-30T11:35:09;7.35;;;6.65;;
23474;SDS011;11910;52.086;21.066;2023-08-30T11:37:34;7.00;;;6.30;;
23474;SDS011;11910;52.086;21.066;2023-08-30T11:40:03;8.93;;;7.78;;
23474;SDS011;11910;52.086;21.066;2023-08-30T11:42:35;8.05;;;7.22;;
23474;SDS011;11910;52.086;21.066;2023-08-30T11:45:04;8.75;;;7.25;;
23474;SDS011;11910;52.086;21.066;2023-08-30T11:47:34;6.15;;;4.40;;
23474;SDS011;11910;52.086;21.066;2023-08-30T11:50:07;4.18;;;3.83;;
23474;SDS011;11910;52.086;21.066;2023-08-30T11:52:35;4.25;;;3.42;;
23474;SDS011;11910;52.086;21.066;2023-08-30T11:55:27;4.40;;;3.90;;
23474;SDS011;11910;52.086;21.066;2023-08-30T11:58:34;4.72;;;4.20;;
23474;SDS011;11910;52.086;21.066;2023-08-30T12:01:02;6.38;;;4.95;;
23474;SDS011;11910;52.086;21.066;2023-08-30T12:03:32;6.22;;;4.68;;
23474;SDS011;11910;52.086;21.066;2023-08-30T13:06:30;8.48;;;7.18;;
23474;SDS011;11910;52.086;21.066;2023-08-30T13:08:56;9.45;;;7.45;;
23474;SDS011;11910;52.086;21.066;2023-08-30T13:11:22;9.15;;;8.02;;
23474;SDS011;11910;52.086;21.066;2023-08-30T13:13:47;9.55;;;7.35;;
23474;SDS011;11910;52.086;21.066;2023-08-30T13:16:13;9.73;;;7.50;;
23474;SDS011;11910;52.086;21.066;2023-08-30T13:18:38;8.55;;;7.20;;
23474;SDS011;11910;52.086;21.066;2023-08-30T13:21:04;7.15;;;6.43;;
23474;SDS011;11910;52.086;21.066;2023-08-30T13:23:30;6.65;;;6.05;;
23474;SDS011;11910;52.086;21.066;2023-08-30T13:25:55;7.10;;;6.18;;
23474;SDS011;11910;52.086;21.066;2023-08-30T13:28:21;6.65;;;6.00;;
23474;SDS011;11910;52.086;21.066;2023-08-30T13:30:46;7.60;;;6.80;;
23474;SDS011;11910;52.086;21.066;2023-08-30T13:33:14;8.52;;;6.97;;
23474;SDS011;11910;52.086;21.066;2023-08-30T13:35:40;10.00;;;7.70;;
23474;SDS011;11910;52.086;21.066;2023-08-30T13:38:05;7.40;;;6.50;;
23474;SDS011;11910;52.086;21.066;2023-08-30T13:40:31;7.68;;;6.13;;
23474;SDS011;11910;52.086;21.066;2023-08-30T13:42:56;6.57;;;5.90;;
23474;SDS011;11910;52.086;21.066;2023-08-30T13:45:22;6.43;;;5.82;;
23474;SDS011;11910;52.086;21.066;2023-08-30T13:47:47;6.82;;;6.18;;
23474;SDS011;11910;52.086;21.066;2023-08-30T13:50:16;5.97;;;5.30;;
23474;SDS011;11910;52.086;21.066;2023-08-30T13:52:42;6.35;;;5.30;;
23474;SDS011;11910;52.086;21.066;2023-08-30T13:55:07;7.00;;;5.57;;
23474;SDS011;11910;52.086;21.066;2023-08-30T13:57:33;7.18;;;4.78;;
23474;SDS011;11910;52.086;21.066;2023-08-30T13:59:59;4.93;;;4.03;;
23474;SDS011;11910;52.086;21.066;2023-08-30T14:02:27;4.63;;;4.20;;
23474;SDS011;11910;52.086;21.066;2023-08-30T14:04:53;5.22;;;4.18;;
23474;SDS011;11910;52.086;21.066;2023-08-30T14:07:19;3.88;;;3.50;;
23474;SDS011;11910;52.086;21.066;2023-08-30T14:09:44;4.97;;;3.75;;
23474;SDS011;11910;52.086;21.066;2023-08-30T14:12:10;4.60;;;4.20;;
23474;SDS011;11910;52.086;21.066;2023-08-30T14:14:36;4.82;;;4.43;;
23474;SDS011;11910;52.086;21.066;2023-08-30T14:17:01;5.65;;;4.05;;
23474;SDS011;11910;52.086;21.066;2023-08-30T14:19:27;4.70;;;4.25;;
23474;SDS011;11910;52.086;21.066;2023-08-30T14:21:53;4.60;;;4.00;;
23474;SDS011;11910;52.086;21.066;2023-08-30T14:24:20;5.78;;;4.40;;
23474;SDS011;11910;52.086;21.066;2023-08-30T14:26:46;4.38;;;3.97;;
23474;SDS011;11910;52.086;21.066;2023-08-30T14:29:11;4.22;;;3.83;;
23474;SDS011;11910;52.086;21.066;2023-08-30T14:31:37;5.53;;;4.57;;
23474;SDS011;11910;52.086;21.066;2023-08-30T14:34:03;4.85;;;4.13;;
23474;SDS011;11910;52.086;21.066;2023-08-30T14:36:28;4.88;;;4.40;;
23474;SDS011;11910;52.086;21.066;2023-08-30T14:38:54;5.40;;;4.10;;
23474;SDS011;11910;52.086;21.066;2023-08-30T14:41:20;5.93;;;4.20;;
23474;SDS011;11910;52.086;21.066;2023-08-30T14:43:45;4.53;;;4.13;;
23474;SDS011;11910;52.086;21.066;2023-08-30T14:46:11;5.07;;;4.30;;
23474;SDS011;11910;52.086;21.066;2023-08-30T14:48:36;4.40;;;3.83;;
23474;SDS011;11910;52.086;21.066;2023-08-30T14:51:04;5.38;;;4.13;;
23474;SDS011;11910;52.086;21.066;2023-08-30T14:53:30;7.45;;;5.03;;
23474;SDS011;11910;52.086;21.066;2023-08-30T14:55:56;7.50;;;5.00;;
23474;SDS011;11910;52.086;21.066;2023-08-30T14:58:22;6.20;;;5.60;;
23474;SDS011;11910;52.086;21.066;2023-08-30T15:00:48;8.70;;;5.95;;
23474;SDS011;11910;52.086;21.066;2023-08-30T15:03:13;6.80;;;5.00;;
23474;SDS011;11910;52.086;21.066;2023-08-30T15:05:39;6.18;;;5.30;;
23474;SDS011;11910;52.086;21.066;2023-08-30T15:08:05;5.40;;;4.90;;
23474;SDS011;11910;52.086;21.066;2023-08-30T15:10:31;5.78;;;4.50;;
23474;SDS011;11910;52.086;21.066;2023-08-30T15:12:57;6.97;;;4.40;;
23474;SDS011;11910;52.086;21.066;2023-08-30T15:15:23;7.72;;;5.15;;
23474;SDS011;11910;52.086;21.066;2023-08-30T15:17:48;6.10;;;4.93;;
23474;SDS011;11910;52.086;21.066;2023-08-30T15:20:14;6.00;;;5.40;;
23474;SDS011;11910;52.086;21.066;2023-08-30T15:22:39;6.57;;;5.78;;
23474;SDS011;11910;52.086;21.066;2023-08-30T15:25:05;5.78;;;5.15;;
23474;SDS011;11910;52.086;21.066;2023-08-30T15:27:33;6.13;;;5.53;;
23474;SDS011;11910;52.086;21.066;2023-08-30T15:29:59;6.22;;;5.63;;
23474;SDS011;11910;52.086;21.066;2023-08-30T15:32:24;6.82;;;5.95;;
23474;SDS011;11910;52.086;21.066;2023-08-30T15:34:50;6.93;;;6.00;;
23474;SDS011;11910;52.086;21.066;2023-08-30T15:37:16;8.63;;;5.90;;
23474;SDS011;11910;52.086;21.066;2023-08-30T15:39:42;6.85;;;6.15;;
23474;SDS011;11910;52.086;21.066;2023-08-30T15:42:08;6.85;;;6.15;;
23474;SDS011;11910;52.086;21.066;2023-08-30T15:44:33;7.28;;;6.57;;
23474;SDS011;11910;52.086;21.066;2023-08-30T15:46:59;8.30;;;6.95;;
23474;SDS011;11910;52.086;21.066;2023-08-30T15:49:25;8.10;;;6.93;;
23474;SDS011;11910;52.086;21.066;2023-08-30T15:51:50;8.25;;;7.13;;
23474;SDS011;11910;52.086;21.066;2023-08-30T15:54:16;7.72;;;6.80;;
23474;SDS011;11910;52.086;21.066;2023-08-30T15:56:41;7.70;;;6.72;;
23474;SDS011;11910;52.086;21.066;2023-08-30T15:59:09;8.52;;;6.30;;
23474;SDS011;11910;52.086;21.066;2023-08-30T16:01:35;7.43;;;6.72;;